Time;durP1;ratioP1;P1;durP2;ratioP2;P2;SDS_P1;SDS_P2;PMS_P1;PMS_P2;Temp;Humidity;BMP_temperature;BMP_pressure;BME280_temperature;BME280_humidity;BME280_pressure;Samples;Min_cycle;Max_cycle;Signal;HPM_P1;HPM_P2
2022/02/03 00:01:06;;;;;;;59.53;26.48;;;;;;;1.78;81.37;99387.19;5060942;28;20136;-21
2022/02/03 00:03:48;;;;;;;51.35;29.33;;;;;;;1.68;81.56;99375.31;5079117;28;20609;-21
2022/02/03 00:06:16;;;;;;;50.72;26.58;;;;;;;1.75;81.32;99392.00;5049450;28;20488;-21
2022/02/03 00:24:52;;;;;;;49.38;24.95;;;;;;;1.86;79.23;99409.97;5073278;28;20046;-21
2022/02/03 00:30:12;;;;;;;65.47;30.50;;;;;;;1.70;79.20;99399.59;5074653;28;20056;-20
2022/02/03 00:32:49;;;;;;;95.80;33.83;;;;;;;1.56;80.67;99425.66;5073207;28;20027;-21
2022/02/03 00:48:33;;;;;;;84.28;31.85;;;;;;;0.61;85.71;99452.09;5075078;28;20082;-22
2022/02/03 00:51:00;;;;;;;130.43;34.22;;;;;;;0.66;85.22;99438.50;5073000;28;20787;-21
2022/02/03 00:53:26;;;;;;;127.80;59.80;;;;;;;0.75;84.76;99417.28;5090272;28;20513;-21
2022/02/03 00:55:54;;;;;;;128.40;65.18;;;;;;;1.05;84.39;99438.47;5090066;28;20038;-20
2022/02/03 00:58:23;;;;;;;95.20;49.55;;;;;;;1.25;82.74;99430.97;5089787;28;20080;-22
2022/02/03 01:00:50;;;;;;;82.18;40.28;;;;;;;1.40;81.67;99429.22;5088501;28;20170;-20
2022/02/03 01:03:15;;;;;;;80.95;39.08;;;;;;;1.26;81.89;99450.16;5071444;28;20047;-21
2022/02/03 01:05:44;;;;;;;78.03;38.88;;;;;;;1.60;79.64;99429.56;5055147;28;20028;-21
2022/02/03 01:08:16;;;;;;;74.65;37.72;;;;;;;1.16;80.27;99451.19;5090040;28;20139;-21
2022/02/03 01:10:52;;;;;;;85.80;43.83;;;;;;;1.06;81.70;99429.59;5057155;28;20016;-21
2022/02/03 01:13:38;;;;;;;77.95;40.60;;;;;;;1.30;81.29;99439.13;5072422;28;20055;-21
2022/02/03 01:21:37;;;;;;;73.10;37.45;;;;;;;1.36;80.08;99453.38;5089473;28;20173;-21
2022/02/03 01:48:35;;;;;;;63.72;32.60;;;;;;;1.34;78.53;99463.25;5089231;28;20039;-21
2022/02/03 01:53:45;;;;;;;58.95;32.55;;;;;;;0.77;80.48;99457.28;5073969;28;20763;-21
2022/02/03 01:56:15;;;;;;;66.55;33.88;;;;;;;1.19;78.93;99450.06;5088951;28;20530;-21
2022/02/03 01:58:44;;;;;;;67.35;33.78;;;;;;;1.29;79.34;99465.56;5088962;28;20076;-21
2022/02/03 02:01:09;;;;;;;64.55;33.80;;;;;;;1.07;79.27;99454.88;5088681;28;20017;-21
2022/02/03 02:03:45;;;;;;;56.78;31.05;;;;;;;1.09;78.46;99439.75;5070321;28;20028;-27
2022/02/03 02:06:30;;;;;;;50.15;26.42;;;;;;;0.78;80.30;99458.13;5054931;28;20024;-22
2022/02/03 02:09:10;;;;;;;66.28;27.77;;;;;;;0.85;79.48;99461.69;5088965;28;20032;-20
2022/02/03 02:12:03;;;;;;;63.58;28.48;;;;;;;0.44;80.17;99443.47;5088244;28;20040;-20
2022/02/03 02:18:18;;;;;;;50.15;24.05;;;;;;;0.02;82.61;99446.34;5051194;28;20063;-22
2022/02/03 02:37:56;;;;;;;39.65;23.05;;;;;;;0.86;80.18;99470.38;5088312;28;20839;-20
2022/02/03 02:40:29;;;;;;;40.67;23.65;;;;;;;0.91;80.40;99489.88;5065766;28;20136;-21
2022/02/03 02:42:51;;;;;;;;;;;;;;;1.12;80.22;99494.53;5088135;28;20039;-20
2022/02/03 02:45:17;;;;;;;47.13;23.65;;;;;;;1.20;79.67;99477.94;5087923;28;19923;-22
2022/02/03 02:47:48;;;;;;;60.08;29.33;;;;;;;1.45;78.51;99504.91;5053540;28;20105;-22
2022/02/03 02:50:17;;;;;;;153.48;75.93;;;;;;;1.23;79.58;99492.53;5087931;28;20028;-21
2022/02/03 02:52:52;;;;;;;139.43;69.80;;;;;;;0.71;81.41;99473.72;5088071;28;20147;-21
2022/02/03 02:55:48;;;;;;;354.20;238.63;;;;;;;0.80;81.96;99498.97;5070154;28;20036;-21
2022/02/03 03:33:57;;;;;;;38.58;21.02;;;;;;;0.77;80.86;99499.28;5087777;28;20031;-20
2022/02/03 03:36:23;;;;;;;40.70;23.02;;;;;;;0.78;80.93;99500.13;5087786;28;20028;-21
2022/02/03 03:38:49;;;;;;;32.17;16.60;;;;;;;1.03;80.49;99492.16;5052980;28;20031;-22
2022/02/03 03:41:19;;;;;;;34.38;18.10;;;;;;;1.00;79.38;99499.38;5087397;28;20020;-20
2022/02/03 03:44:03;;;;;;;36.85;17.42;;;;;;;1.28;79.35;99506.78;5087042;28;20487;-21
2022/02/03 03:46:32;;;;;;;34.17;16.77;;;;;;;1.36;78.93;99516.44;5072115;28;20032;-22
2022/02/03 03:49:08;;;;;;;28.70;16.52;;;;;;;1.51;78.22;99525.22;5087579;28;20040;-21
2022/02/03 03:51:51;;;;;;;31.75;16.40;;;;;;;1.43;77.19;99506.03;5087435;28;20460;-21
2022/02/03 05:07:41;;;;;;;61.10;40.10;;;;;;;0.74;80.55;99643.19;5072471;28;20036;-21
2022/02/03 05:13:41;;;;;;;81.03;44.03;;;;;;;0.99;79.86;99646.59;5075552;28;20043;-20
2022/02/03 05:51:27;;;;;;;22.42;11.85;;;;;;;0.91;78.25;99693.84;5059793;28;20096;-22
2022/02/03 06:01:22;;;;;;;22.02;11.27;;;;;;;1.03;78.22;99729.28;5067581;28;20036;-21
2022/02/03 06:14:25;;;;;;;21.02;10.52;;;;;;;1.00;78.09;99756.72;5068492;28;20445;-20
2022/02/03 06:22:46;;;;;;;21.75;11.75;;;;;;;1.17;77.20;99783.78;5068027;28;20090;-21
2022/02/03 06:27:37;;;;;;;22.00;11.35;;;;;;;1.27;78.29;99788.03;5067883;28;20040;-22
2022/02/03 06:30:03;;;;;;;22.20;12.57;;;;;;;1.15;79.17;99804.13;5068062;28;20032;-21
2022/02/03 06:32:29;;;;;;;24.00;12.45;;;;;;;1.21;79.49;99802.66;5067648;28;20036;-21
2022/02/03 06:34:54;;;;;;;19.60;12.43;;;;;;;1.24;78.89;99819.91;5068021;28;20043;-22
2022/02/03 06:37:20;;;;;;;20.92;11.50;;;;;;;1.42;78.50;99807.41;5067632;28;20028;-21
2022/02/03 06:39:45;;;;;;;24.65;12.55;;;;;;;1.67;77.67;99820.50;5068049;28;20077;-21
2022/02/03 06:42:11;;;;;;;20.42;12.23;;;;;;;1.75;76.54;99812.59;5067859;28;20021;-21
2022/02/03 06:47:46;;;;;;;24.75;12.35;;;;;;;1.67;77.40;99823.94;5054205;28;20046;-21
2022/02/03 06:50:27;;;;;;;21.98;12.82;;;;;;;1.65;77.64;99831.19;5068032;28;20037;-21
2022/02/03 06:53:07;;;;;;;20.65;11.98;;;;;;;1.83;77.18;99827.56;5067631;28;20404;-20
2022/02/03 06:58:35;;;;;;;20.70;11.82;;;;;;;1.82;77.90;99847.78;5049087;28;20059;-20
2022/02/03 07:01:10;;;;;;;26.00;14.27;;;;;;;2.08;76.88;99849.34;5087753;28;20108;-21
2022/02/03 07:03:40;;;;;;;32.78;14.77;;;;;;;2.30;76.38;99848.59;5087652;28;20028;-20
2022/02/03 07:06:06;;;;;;;24.98;12.82;;;;;;;2.14;76.46;99860.00;5088072;28;20034;-20
2022/02/03 07:08:33;;;;;;;25.15;13.00;;;;;;;2.18;76.97;99860.50;5087886;28;20028;-20
2022/02/03 07:11:00;;;;;;;25.90;14.13;;;;;;;1.99;77.17;99844.09;5087865;28;20027;-22
2022/02/03 07:13:26;;;;;;;27.60;14.70;;;;;;;2.36;75.98;99862.91;5086457;28;20043;-20
2022/02/03 07:15:51;;;;;;;23.77;14.40;;;;;;;2.42;76.09;99876.19;5087604;28;20028;-20
2022/02/03 07:18:17;;;;;;;22.48;12.55;;;;;;;2.09;76.76;99853.63;5087570;28;20036;-21
2022/02/03 07:20:43;;;;;;;23.13;12.40;;;;;;;2.56;76.59;99856.22;5087714;28;20067;-21
2022/02/03 07:23:09;;;;;;;27.02;12.95;;;;;;;2.81;75.29;99862.19;5087657;28;20039;-21
2022/02/03 07:25:35;;;;;;;24.08;13.90;;;;;;;2.69;74.80;99860.94;5069608;28;20028;-21
2022/02/03 07:28:02;;;;;;;22.63;12.77;;;;;;;2.83;75.37;99866.47;5087534;28;20480;-21
2022/02/03 07:30:27;;;;;;;25.95;13.63;;;;;;;3.08;74.88;99873.22;5069781;28;20495;-21
2022/02/03 07:32:56;;;;;;;25.08;15.05;;;;;;;2.83;74.84;99859.38;5087474;28;20050;-21
2022/02/03 07:35:21;;;;;;;;;;;;;;;2.67;75.47;99886.63;5088194;28;20052;-21
2022/02/03 07:37:48;;;;;;;27.63;14.77;;;;;;;2.57;75.68;99870.22;5087683;28;19957;-21
2022/02/03 07:40:14;;;;;;;26.35;13.38;;;;;;;2.55;76.54;99872.19;5087536;28;20046;-22
2022/02/03 07:42:40;;;;;;;25.15;13.93;;;;;;;3.02;75.30;99889.72;5087631;28;20492;-22
2022/02/03 07:45:06;;;;;;;25.05;13.57;;;;;;;3.32;74.22;99881.97;5087533;28;20036;-20
2022/02/03 07:47:32;;;;;;;24.73;12.98;;;;;;;3.39;73.45;99872.34;5087099;28;20511;-21
2022/02/03 07:49:57;;;;;;;31.80;15.30;;;;;;;3.52;73.29;99900.75;5087756;28;20036;-20
2022/02/03 07:52:23;;;;;;;37.72;17.60;;;;;;;3.45;74.43;99902.47;5087664;28;20024;-20
2022/02/03 07:54:48;;;;;;;31.23;17.42;;;;;;;3.68;73.30;99900.63;5069727;28;20047;-22
2022/02/03 07:57:14;;;;;;;29.13;14.55;;;;;;;3.63;73.40;99903.78;5087256;28;20031;-22
2022/02/03 07:59:40;;;;;;;25.73;14.02;;;;;;;3.52;73.88;99914.75;5086933;28;20140;-21
2022/02/03 08:02:06;;;;;;;26.80;15.25;;;;;;;3.54;74.58;99898.78;5087087;28;20112;-21
2022/02/03 08:04:33;;;;;;;24.50;14.35;;;;;;;3.71;73.79;99915.28;5087572;28;20028;-20
2022/02/03 08:07:00;;;;;;;27.60;14.90;;;;;;;3.85;73.40;99927.69;5087477;28;20028;-21
2022/02/03 08:09:39;;;;;;;52.67;21.88;;;;;;;3.84;73.52;99918.09;5087921;28;20032;-22
2022/02/03 08:12:09;;;;;;;45.05;20.10;;;;;;;3.85;73.43;99940.88;5075065;28;20030;-21
2022/02/03 08:14:39;;;;;;;25.45;14.88;;;;;;;4.06;73.01;99949.91;5090879;28;20032;-26
2022/02/03 08:17:13;;;;;;;29.05;14.80;;;;;;;4.17;72.33;99946.88;5091171;28;20122;-21
2022/02/03 08:22:16;;;;;;;26.30;14.57;;;;;;;3.96;73.55;99929.06;5090855;28;20035;-21
2022/02/03 08:32:22;;;;;;;;;;;;;;;4.27;74.00;99952.69;5091433;28;20063;-21
2022/02/03 08:35:08;;;;;;;26.13;15.65;;;;;;;4.08;74.20;99958.47;5090766;28;19969;-21
2022/02/03 08:38:01;;;;;;;26.25;15.13;;;;;;;4.19;74.22;99963.34;5079914;28;20024;-21
2022/02/03 08:40:43;;;;;;;39.25;21.58;;;;;;;4.17;73.49;99968.78;5081029;28;20028;-21
2022/02/03 08:43:09;;;;;;;37.92;20.50;;;;;;;4.12;73.48;99975.59;5057419;28;20033;-21
2022/02/03 08:45:34;;;;;;;34.28;19.35;;;;;;;4.04;73.81;99979.13;5069959;28;20036;-21
2022/02/03 08:48:00;;;;;;;39.95;21.55;;;;;;;4.14;73.35;99984.16;5070421;28;20059;-20
2022/02/03 08:50:25;;;;;;;30.10;16.42;;;;;;;4.33;72.98;99985.44;5070343;28;20054;-20
2022/02/03 09:52:12;;;;;;;41.63;21.40;;;;;;;6.09;67.40;100031.31;5069339;28;20052;-20
2022/02/03 10:02:12;;;;;;;42.42;22.60;;;;;;;5.63;67.77;100033.28;5051791;28;20032;-21
2022/02/03 10:07:20;;;;;;;37.17;20.23;;;;;;;5.59;68.94;100029.38;5068671;28;20029;-21
2022/02/03 10:09:48;;;;;;;34.78;19.40;;;;;;;5.92;68.05;100047.41;5068817;28;20349;-20
2022/02/03 10:12:13;;;;;;;31.83;17.25;;;;;;;5.96;67.86;100048.72;5068694;28;20506;-21
2022/02/03 10:14:43;;;;;;;23.38;14.88;;;;;;;6.11;67.73;100026.63;5068525;28;20028;-20
2022/02/03 10:17:09;;;;;;;25.08;15.15;;;;;;;6.41;66.88;100045.84;5068560;28;20031;-21
2022/02/03 10:19:41;;;;;;;21.73;13.05;;;;;;;6.17;66.91;100029.38;5067979;28;20032;-22
2022/02/03 10:22:18;;;;;;;20.92;12.75;;;;;;;5.99;67.81;100047.53;5068710;28;20032;-20
2022/02/03 10:24:47;;;;;;;19.70;12.77;;;;;;;6.19;67.41;100050.34;5068496;28;20096;-22
2022/02/03 10:27:34;;;;;;;18.65;12.23;;;;;;;6.28;67.41;100046.56;5068414;28;20040;-21
2022/02/03 10:30:12;;;;;;;18.00;11.63;;;;;;;6.47;66.91;100036.31;5068180;28;20032;-21
2022/02/03 10:32:41;;;;;;;20.47;11.57;;;;;;;6.59;67.28;100042.72;5073733;28;20085;-20
2022/02/03 10:35:24;;;;;;;20.35;12.40;;;;;;;6.54;67.21;100063.66;5077132;28;20029;-20
2022/02/03 10:51:40;;;;;;;20.50;12.00;;;;;;;7.12;64.74;100047.53;5087972;28;20115;-21
2022/02/03 10:54:22;;;;;;;20.48;12.38;;;;;;;7.10;65.39;100058.31;5072683;28;20031;-21
2022/02/03 11:07:45;;;;;;;27.27;16.75;;;;;;;6.70;65.64;100073.16;5087589;28;20143;-21
2022/02/03 11:12:51;;;;;;;32.15;23.83;;;;;;;6.90;65.31;100082.06;5088105;28;19951;-20
2022/02/03 11:15:17;;;;;;;30.17;23.20;;;;;;;7.06;66.20;100080.94;5070683;28;20050;-21
2022/02/03 11:17:45;;;;;;;49.42;25.70;;;;;;;7.30;65.00;100076.19;5054044;28;20471;-20
2022/02/03 11:20:11;;;;;;;27.55;16.55;;;;;;;7.31;65.38;100088.41;5054141;28;20040;-22
2022/02/03 11:25:35;;;;;;;22.42;13.93;;;;;;;7.11;65.29;100080.34;5088615;28;20032;-20
2022/02/03 11:52:38;;;;;;;29.65;18.73;;;;;;;7.43;65.20;100098.25;5092647;28;20110;-20
2022/02/03 11:58:31;;;;;;;33.20;20.90;;;;;;;7.49;65.96;100091.34;5088968;28;20368;-21
2022/02/03 12:20:59;;;;;;;52.90;30.92;;;;;;;7.17;68.38;100117.53;5091873;28;20030;-20
2022/02/03 12:23:48;;;;;;;38.25;24.50;;;;;;;6.93;69.27;100136.56;5091812;28;20492;-20
2022/02/03 12:26:35;;;;;;;41.60;25.33;;;;;;;7.06;68.73;100118.06;5092230;28;20031;-20
2022/02/03 12:29:11;;;;;;;33.25;22.17;;;;;;;7.08;67.74;100120.53;5092241;28;20483;-21
2022/02/03 12:31:53;;;;;;;32.40;20.52;;;;;;;7.23;67.08;100119.41;5091909;28;20115;-21
2022/02/03 12:44:51;;;;;;;38.03;27.65;;;;;;;7.18;67.08;100129.75;5064867;28;20411;-20
2022/02/03 12:47:17;;;;;;;41.10;31.70;;;;;;;7.05;67.78;100142.97;5061101;28;20032;-23
2022/02/03 12:49:44;;;;;;;52.47;38.28;;;;;;;7.06;67.68;100131.31;5072368;28;20474;-21
2022/02/03 12:52:23;;;;;;;49.07;33.47;;;;;;;7.30;67.18;100135.34;5071481;28;20170;-20
2022/02/03 12:54:49;;;;;;;46.60;29.80;;;;;;;7.29;67.86;100132.88;5071280;28;20112;-21
2022/02/03 12:57:26;;;;;;;101.43;70.38;;;;;;;7.28;66.65;100147.19;5069828;28;20024;-22
2022/02/03 13:00:12;;;;;;;108.93;75.05;;;;;;;7.18;67.04;100116.50;5070769;28;20056;-20
2022/02/03 13:02:38;;;;;;;32.25;21.95;;;;;;;7.40;66.72;100140.31;5071304;28;20028;-20
2022/02/03 13:05:04;;;;;;;30.55;19.63;;;;;;;7.34;66.74;100125.19;5071530;28;20035;-21
2022/02/03 13:07:30;;;;;;;32.65;24.75;;;;;;;7.58;66.13;100161.84;5070879;28;20109;-20
2022/02/03 13:10:08;;;;;;;33.28;22.30;;;;;;;7.79;64.74;100144.97;5053086;28;20032;-20
2022/02/03 13:12:38;;;;;;;93.78;53.83;;;;;;;7.62;66.17;100165.72;5070900;28;20086;-20
2022/02/03 13:15:05;;;;;;;42.65;35.67;;;;;;;7.38;65.27;100143.16;5071256;28;20119;-21
2022/02/03 13:17:38;;;;;;;29.45;18.10;;;;;;;7.37;61.13;100151.28;5071021;28;20549;-21
2022/02/03 13:20:17;;;;;;;34.45;25.38;;;;;;;7.17;65.90;100151.16;5070933;28;20424;-20
2022/02/03 13:25:18;;;;;;;;;;;;;;;7.54;64.86;100184.47;5071446;28;20040;-21
2022/02/03 13:30:30;;;;;;;40.55;28.60;;;;;;;7.44;62.43;100186.66;5052635;28;20024;-20
2022/02/03 13:33:00;;;;;;;25.73;18.63;;;;;;;7.40;60.51;100183.56;5038764;28;20043;-20
2022/02/03 13:35:30;;;;;;;23.83;16.25;;;;;;;7.40;60.99;100188.88;5070331;28;20133;-21
2022/02/03 13:38:05;;;;;;;24.80;14.82;;;;;;;7.57;60.22;100168.13;5070821;28;20039;-20
2022/02/03 13:40:30;;;;;;;30.25;15.90;;;;;;;7.75;59.30;100180.09;5070746;28;20036;-21
2022/02/03 13:43:08;;;;;;;24.92;14.73;;;;;;;7.60;58.39;100182.84;5070390;28;20024;-21
2022/02/03 13:45:34;;;;;;;21.63;13.93;;;;;;;7.67;55.29;100183.72;5051700;28;20086;-21
2022/02/03 13:48:01;;;;;;;12.77;8.50;;;;;;;7.75;55.05;100188.03;5070196;28;20040;-21
2022/02/03 13:50:29;;;;;;;16.83;11.73;;;;;;;7.70;55.56;100193.91;5052925;28;20028;-20
2022/02/03 13:53:09;;;;;;;;;;;;;;;7.61;54.15;100201.22;5070894;28;20032;-21
2022/02/03 14:15:13;;;;;;;12.15;7.57;;;;;;;7.10;56.88;100204.16;5068589;28;20040;-20
2022/02/03 14:28:18;;;;;;;21.92;13.90;;;;;;;7.33;59.52;100208.41;5068571;28;20768;-20
2022/02/03 14:30:47;;;;;;;41.10;21.60;;;;;;;7.30;59.86;100190.25;5068273;28;20040;-20
2022/02/03 14:33:17;;;;;;;59.92;23.45;;;;;;;7.71;58.10;100226.63;5068243;28;20068;-20
2022/02/03 14:35:44;;;;;;;40.35;19.17;;;;;;;8.02;57.81;100224.31;5068029;28;20036;-20
2022/02/03 14:38:26;;;;;;;31.05;15.73;;;;;;;8.06;58.04;100224.72;5068341;28;20107;-21
2022/02/03 14:41:11;;;;;;;27.65;15.63;;;;;;;7.95;58.38;100233.28;5067226;28;20499;-20
2022/02/03 14:43:36;;;;;;;27.88;18.50;;;;;;;8.05;57.75;100234.53;5067226;28;20024;-20
2022/02/03 14:46:03;;;;;;;25.77;14.32;;;;;;;8.34;57.50;100231.78;5067390;28;20055;-20
2022/02/03 14:48:29;;;;;;;14.45;8.00;;;;;;;7.39;58.45;100234.16;5067394;28;20021;-20
2022/02/03 14:50:56;;;;;;;25.98;17.02;;;;;;;7.33;60.82;100240.25;5049308;28;20031;-20
2022/02/03 14:53:31;;;;;;;53.83;34.17;;;;;;;7.15;60.36;100223.00;5067064;28;20029;-20
2022/02/03 14:58:41;;;;;;;76.15;49.63;;;;;;;7.10;60.39;100251.91;5067545;28;20071;-20
2022/02/03 15:01:06;;;;;;;130.95;74.68;;;;;;;7.11;60.11;100248.25;5067546;28;20032;-20
2022/02/03 15:03:32;;;;;;;101.60;60.75;;;;;;;7.39;58.97;100250.91;5033106;28;20039;-21
2022/02/03 15:06:07;;;;;;;64.45;41.65;;;;;;;7.20;60.72;100252.41;5049747;28;20121;-21
2022/02/03 15:11:14;;;;;;;69.15;41.10;;;;;;;7.29;60.67;100261.03;5069664;28;20033;-21
2022/02/03 15:13:46;;;;;;;89.43;57.22;;;;;;;7.28;59.91;100261.25;5077308;28;20028;-20
2022/02/03 15:16:12;;;;;;;85.85;54.58;;;;;;;6.88;60.28;100248.44;5070580;28;20029;-21
2022/02/03 15:18:38;;;;;;;90.13;59.40;;;;;;;7.15;59.80;100253.97;5067480;28;20032;-21
2022/02/03 15:21:04;;;;;;;82.15;52.08;;;;;;;7.44;58.82;100272.38;5069654;28;20059;-20
2022/02/03 15:23:30;;;;;;;78.18;51.67;;;;;;;7.37;58.79;100266.19;5059408;28;20427;-21
2022/02/03 15:25:55;;;;;;;69.45;45.97;;;;;;;7.32;59.49;100251.88;5077280;28;20031;-21
2022/02/03 15:28:21;;;;;;;76.45;50.80;;;;;;;7.29;59.57;100268.19;5076669;28;20088;-22
2022/02/03 15:30:47;;;;;;;66.38;46.20;;;;;;;7.35;58.90;100270.06;5077574;28;20020;-21
2022/02/03 15:33:13;;;;;;;60.95;39.95;;;;;;;7.21;58.68;100247.91;5069829;28;20035;-20
2022/02/03 15:35:49;;;;;;;58.67;38.17;;;;;;;7.16;58.88;100266.25;5066939;28;20024;-21
2022/02/03 15:38:18;;;;;;;50.30;33.08;;;;;;;7.28;58.25;100285.13;5066934;28;20037;-21
2022/02/03 15:40:43;;;;;;;50.03;32.85;;;;;;;7.05;59.72;100280.84;5067071;28;20083;-20
2022/02/03 15:43:25;;;;;;;44.70;29.33;;;;;;;6.67;60.04;100267.00;5067101;28;20439;-20
2022/02/03 15:45:54;;;;;;;50.60;32.28;;;;;;;7.00;58.97;100275.28;5066974;28;20089;-20
2022/02/03 16:17:10;;;;;;;71.97;38.40;;;;;;;6.16;63.44;100329.59;5066867;28;20032;-20
2022/02/03 16:19:57;;;;;;;64.80;38.10;;;;;;;6.27;64.11;100335.41;5048910;28;20032;-20
2022/02/03 16:54:42;;;;;;;31.42;20.77;;;;;;;6.15;61.96;100396.81;5066341;28;20067;-20
2022/02/03 16:57:17;;;;;;;39.30;21.95;;;;;;;6.06;63.91;100407.66;5069742;28;20472;-20
2022/02/03 17:02:17;;;;;;;35.30;22.65;;;;;;;6.34;62.39;100400.72;5069915;28;20028;-20
2022/02/03 17:04:43;;;;;;;32.47;20.70;;;;;;;6.07;62.75;100401.34;5069932;28;20461;-21
2022/02/03 17:07:08;;;;;;;33.55;20.75;;;;;;;5.76;64.47;100413.69;5069795;28;20032;-22
2022/02/03 17:09:35;;;;;;;36.25;23.85;;;;;;;5.67;66.58;100419.22;5069588;28;20028;-21
2022/02/03 17:12:00;;;;;;;55.75;33.45;;;;;;;5.54;66.83;100410.06;5069333;28;20028;-22
2022/02/03 17:14:28;;;;;;;38.92;25.20;;;;;;;5.56;66.17;100425.75;5070069;28;20082;-21
2022/02/03 17:16:53;;;;;;;40.05;25.15;;;;;;;5.80;65.26;100403.56;5069862;28;20032;-20
2022/02/03 17:19:21;;;;;;;40.28;24.70;;;;;;;5.98;65.41;100422.59;5069671;28;20198;-21
2022/02/03 17:21:46;;;;;;;48.90;25.83;;;;;;;5.81;65.24;100407.84;5069651;28;20107;-20
2022/02/03 17:24:12;;;;;;;49.92;34.13;;;;;;;5.93;65.09;100400.31;5069610;28;20036;-21
2022/02/03 17:29:42;;;;;;;59.03;37.17;;;;;;;6.09;65.64;100433.75;5069360;28;20043;-21
2022/02/03 18:10:10;;;;;;;34.30;24.27;;;;;;;5.45;69.42;100464.00;5068999;28;20038;-20
2022/02/03 18:30:53;;;;;;;;;;;;;;;4.83;72.10;100475.41;5068695;28;20478;-20
2022/02/03 18:55:05;;;;;;;52.63;30.38;;;;;;;4.30;71.15;100488.28;5059025;28;20032;-28
2022/02/03 19:00:51;;;;;;;61.78;33.75;;;;;;;4.29;71.73;100512.19;5054710;28;20519;-20
2022/02/03 20:09:04;;;;;;;31.48;15.85;;;;;;;3.28;73.69;100536.97;5090979;28;20036;-20
2022/02/03 20:11:32;;;;;;;26.92;13.85;;;;;;;3.16;73.36;100502.19;5073998;28;20085;-20
2022/02/03 20:13:57;;;;;;;17.95;11.45;;;;;;;3.33;72.54;100529.41;5090988;28;20024;-20
2022/02/03 20:16:23;;;;;;;17.38;10.80;;;;;;;3.25;72.60;100532.00;5090859;28;20043;-21
2022/02/03 20:18:48;;;;;;;16.38;9.52;;;;;;;3.29;71.97;100526.28;5090808;28;20032;-20
2022/02/03 20:21:14;;;;;;;17.42;9.88;;;;;;;3.10;71.89;100524.72;5090414;28;20776;-21
2022/02/03 20:23:43;;;;;;;15.32;8.90;;;;;;;3.11;70.32;100538.75;5090312;28;20047;-20
2022/02/03 20:26:10;;;;;;;14.90;7.97;;;;;;;2.96;69.57;100517.41;5090752;28;20115;-21
2022/02/03 20:28:35;;;;;;;13.60;7.75;;;;;;;2.92;69.41;100539.78;5090175;28;20412;-21
2022/02/03 20:31:01;;;;;;;13.52;7.43;;;;;;;2.96;69.38;100551.66;5090486;28;20035;-20
2022/02/03 20:33:26;;;;;;;16.60;9.13;;;;;;;2.70;69.95;100520.09;5072097;28;20059;-21
2022/02/03 20:35:52;;;;;;;16.52;10.00;;;;;;;2.86;70.02;100548.31;5090271;28;20475;-20
2022/02/03 20:38:18;;;;;;;15.93;8.50;;;;;;;2.73;70.21;100539.03;5090183;28;20092;-20
2022/02/03 20:40:44;;;;;;;16.00;9.13;;;;;;;2.68;69.43;100530.78;5072166;28;20028;-22
2022/02/03 20:43:09;;;;;;;17.83;10.10;;;;;;;2.71;69.26;100546.25;5079619;28;20033;-21
2022/02/03 20:45:36;;;;;;;18.40;9.55;;;;;;;2.72;69.25;100540.03;5069744;28;20036;-21
2022/02/03 20:48:01;;;;;;;18.10;8.98;;;;;;;2.70;69.42;100552.53;5070067;28;20101;-20
2022/02/03 20:50:26;;;;;;;16.52;8.82;;;;;;;2.67;69.26;100547.56;5069958;28;20036;-20
2022/02/03 20:52:52;;;;;;;15.25;8.95;;;;;;;2.42;68.06;100525.53;5069511;28;20024;-21
2022/02/03 20:55:18;;;;;;;17.48;6.97;;;;;;;2.61;67.43;100558.72;5051876;28;20082;-21
2022/02/03 20:57:43;;;;;;;16.52;8.32;;;;;;;2.57;66.95;100560.00;5051545;28;20040;-21
2022/02/03 21:00:23;;;;;;;16.30;7.68;;;;;;;2.61;66.54;100558.72;5052212;28;20055;-21
2022/02/03 21:05:23;;;;;;;13.18;8.20;;;;;;;2.36;66.29;100521.69;5052676;28;20021;-21
2022/02/03 21:07:50;;;;;;;12.98;8.10;;;;;;;2.34;66.51;100547.34;5034914;28;20700;-21
2022/02/03 21:10:18;;;;;;;11.65;6.90;;;;;;;2.42;66.12;100568.47;5069697;28;20089;-21
2022/02/03 21:12:44;;;;;;;17.17;8.77;;;;;;;2.45;66.37;100571.75;5079331;28;20480;-21
2022/02/03 21:15:12;;;;;;;14.02;6.85;;;;;;;2.40;65.32;100569.59;5078190;28;20027;-21
2022/02/03 21:17:38;;;;;;;15.70;7.43;;;;;;;2.33;65.76;100561.50;5060434;28;20130;-23
2022/02/03 21:20:08;;;;;;;14.27;7.85;;;;;;;2.28;66.18;100566.38;5044220;28;20342;-20
2022/02/03 21:22:37;;;;;;;15.38;8.77;;;;;;;2.21;65.42;100558.25;5060417;28;20024;-20
2022/02/03 21:25:17;;;;;;;15.10;7.95;;;;;;;2.13;65.27;100549.50;5061181;28;20036;-20
2022/02/03 21:27:43;;;;;;;15.25;8.07;;;;;;;2.07;65.59;100550.91;5062810;28;20028;-21
2022/02/03 21:30:09;;;;;;;11.38;6.22;;;;;;;2.05;65.79;100570.47;5071097;28;20039;-21
2022/02/03 21:32:37;;;;;;;12.32;7.07;;;;;;;2.07;65.44;100573.78;5089198;28;20055;-21
2022/02/03 21:35:04;;;;;;;13.10;7.25;;;;;;;1.89;66.03;100566.69;5071658;28;20106;-20
2022/02/03 21:37:31;;;;;;;17.00;8.20;;;;;;;1.98;66.35;100571.06;5089097;28;20024;-20
2022/02/03 21:39:56;;;;;;;14.75;6.75;;;;;;;1.98;65.83;100576.34;5089247;28;20032;-20
2022/02/03 21:42:22;;;;;;;15.23;7.13;;;;;;;2.03;66.38;100582.94;5070842;28;20031;-21
2022/02/03 21:44:47;;;;;;;11.65;6.85;;;;;;;1.93;66.16;100578.56;5089215;28;20036;-21
2022/02/03 21:47:13;;;;;;;15.65;6.85;;;;;;;1.72;66.01;100564.91;5070684;28;20024;-21
2022/02/03 21:49:38;;;;;;;14.20;7.57;;;;;;;1.77;66.18;100565.25;5088955;28;20035;-20
2022/02/03 21:52:04;;;;;;;12.68;7.03;;;;;;;1.81;65.74;100577.13;5089547;28;20411;-20
2022/02/03 21:54:34;;;;;;;12.77;6.70;;;;;;;1.76;66.31;100587.28;5088693;28;20028;-20
2022/02/03 21:57:00;;;;;;;12.65;7.45;;;;;;;1.82;65.81;100586.69;5088972;28;20111;-21
2022/02/03 21:59:26;;;;;;;11.73;6.97;;;;;;;1.68;65.75;100568.81;5088200;28;20063;-20
2022/02/03 22:01:51;;;;;;;13.02;6.82;;;;;;;1.75;65.61;100588.25;5071831;28;20024;-21
2022/02/03 22:04:17;;;;;;;11.27;6.45;;;;;;;1.74;65.94;100590.06;5089773;28;20032;-20
2022/02/03 22:06:42;;;;;;;13.60;7.57;;;;;;;1.76;65.10;100584.66;5089500;28;20031;-29
2022/02/03 22:09:08;;;;;;;13.20;8.02;;;;;;;1.91;64.97;100600.75;5089367;28;20039;-20
2022/02/03 22:11:33;;;;;;;11.05;6.72;;;;;;;1.76;65.88;100587.28;5089052;28;20033;-20
2022/02/03 22:14:00;;;;;;;11.20;7.05;;;;;;;1.71;65.33;100594.78;5088948;28;20396;-21
2022/02/03 22:16:27;;;;;;;12.60;7.18;;;;;;;1.79;65.35;100586.97;5071044;28;20036;-20
2022/02/03 22:18:52;;;;;;;11.50;6.80;;;;;;;1.89;65.50;100593.00;5089077;28;20081;-21
2022/02/03 22:45:45;;;;;;;11.98;6.22;;;;;;;1.69;64.89;100613.31;5015352;28;20060;-20
2022/02/03 22:48:28;;;;;;;10.93;5.35;;;;;;;1.69;64.86;100607.25;5088522;28;20492;-19
2022/02/03 22:50:55;;;;;;;10.60;5.85;;;;;;;1.65;64.82;100592.75;5070268;28;20035;-21
2022/02/03 22:53:21;;;;;;;11.45;6.88;;;;;;;1.72;64.28;100591.19;5088263;28;20541;-20
2022/02/03 22:55:46;;;;;;;12.77;7.18;;;;;;;1.70;65.30;100615.00;5088433;28;20028;-20
2022/02/03 23:00:59;;;;;;;12.27;6.82;;;;;;;1.60;64.83;100582.69;5088278;28;20039;-20
2022/02/03 23:03:25;;;;;;;10.80;5.95;;;;;;;1.76;64.37;100618.84;5069623;28;20043;-20
2022/02/03 23:05:51;;;;;;;11.65;6.22;;;;;;;1.71;64.51;100615.81;5088237;28;20047;-20
2022/02/03 23:16:17;;;;;;;8.55;4.82;;;;;;;1.55;65.72;100591.00;5088123;28;19916;-20
2022/02/03 23:21:27;;;;;;;9.20;5.95;;;;;;;1.56;65.34;100608.44;5088190;28;20040;-20
2022/02/03 23:23:54;;;;;;;7.75;4.57;;;;;;;1.51;65.58;100594.91;5088112;28;20062;-20
2022/02/03 23:26:22;;;;;;;10.05;5.38;;;;;;;1.56;65.14;100616.31;5087813;28;20031;-20
2022/02/03 23:28:50;;;;;;;12.23;6.80;;;;;;;1.70;64.89;100611.53;5087946;28;20032;-20
2022/02/03 23:31:15;;;;;;;13.18;6.65;;;;;;;1.63;65.13;100620.97;5087373;28;20031;-20
2022/02/03 23:33:41;;;;;;;9.13;4.75;;;;;;;1.61;64.83;100629.00;5087685;28;20484;-20
2022/02/03 23:36:06;;;;;;;10.23;5.75;;;;;;;1.62;64.73;100622.78;5087074;28;20039;-21
2022/02/03 23:38:41;;;;;;;10.25;6.68;;;;;;;1.62;64.59;100632.50;5069332;28;20036;-21
